Emmagracht — PDYX — position and weather

sailwx.info

Track history (hours):
 
Tides and Currents Weather Stations Pressure Air Temp Water Temp Dewpoint Dewpoint Depression Visibility Wind Speed Wind Dir Waves Ship Positions

Emmagracht

Last reported at 2017-Feb-21 07:31 UTC. Time now 2017-Feb-21 07:58 UTC.
Position N 51°54' E 004°25'.

Length 136 m; beam 19 m; draft 9 m.

Type: Cargo ship. MMSI: 246308000.

Date/timePositionNaut miles runAvg speedWind from/ knotsBaromVisibWave heightAir tempDewpointWater temp
2017-Feb-21 07:31N 51°54' E 004°25'0 0.0
2017-Feb-21 06:31N 51°54' E 004°25'0 0.0
2017-Feb-21 05:31N 51°54' E 004°25'0 0.0
2017-Feb-21 04:31N 51°54' E 004°25'0 0.0
2017-Feb-21 03:31N 51°54' E 004°25'0 0.0
2017-Feb-21 02:32N 51°54' E 004°25'0 0.0
2017-Feb-21 01:31N 51°54' E 004°25'0 0.0
2017-Feb-21 00:31N 51°54' E 004°25'0 0.0
2017-Feb-20 23:32N 51°54' E 004°25'0 0.0
2017-Feb-20 22:32N 51°54' E 004°25'0 0.5
2017-Feb-20 21:33N 51°54' E 004°25'1 1.1
2017-Feb-20 20:31N 51°53' E 004°26'0 0.0
2017-Feb-20 19:31N 51°53' E 004°26'1 0.8
2017-Feb-20 18:34N 51°53' E 004°24'5 5.5
2017-Feb-20 17:34N 51°54' E 004°16'8 8.4
2017-Feb-20 16:34N 51°59' E 004°04'10 9.6
2017-Feb-20 15:34N 52°00' E 003°49'1010.4
2017-Feb-20 14:33N 52°06' E 003°34'  
2017-Feb-16 23:08N 68°13' E 010°02'712.5
2017-Feb-16 22:32N 68°18' E 010°17'1211.7
2017-Feb-16 21:33N 68°26' E 010°40'  
2017-Feb-14 00:32N 69°03' E 033°06'5 5.5
2017-Feb-13 23:33N 68°58' E 033°03'0 0.1
2017-Feb-13 22:31N 68°58' E 033°03'0 0.0
2017-Feb-13 21:31N 68°58' E 033°03'0 0.0
2017-Feb-13 20:31N 68°58' E 033°03'0 0.0
2017-Feb-13 19:31N 68°58' E 033°03'0 0.0
2017-Feb-13 18:31N 68°58' E 033°03'0 0.0
2017-Feb-13 17:31N 68°58' E 033°03'0 0.0
2017-Feb-13 16:31N 68°58' E 033°03'0 0.0
2017-Feb-13 15:31N 68°58' E 033°03'0 0.0
2017-Feb-13 14:31N 68°58' E 033°03'0 0.0
2017-Feb-13 13:31N 68°58' E 033°03'0 0.0
2017-Feb-13 12:31N 68°58' E 033°03'0 0.0
2017-Feb-12 22:28N 68°58' E 033°03'0 0.0
2017-Feb-12 21:33N 68°58' E 033°03'0 0.0
2017-Feb-12 20:33N 68°58' E 033°03'0 0.0
2017-Feb-12 19:33N 68°58' E 033°03'0 0.0
2017-Feb-12 18:33N 68°58' E 033°03'0 0.0
2017-Feb-12 17:33N 68°58' E 033°03'0 0.0
2017-Feb-12 16:33N 68°58' E 033°03'0 0.0
2017-Feb-12 15:33N 68°58' E 033°03'0 0.0
2017-Feb-12 14:33N 68°58' E 033°03'0 0.0
2017-Feb-12 13:33N 68°58' E 033°03'0 0.0
2017-Feb-12 12:33N 68°58' E 033°03'0 0.0
2017-Feb-12 11:33N 68°58' E 033°03'0 0.0
2017-Feb-12 10:30N 68°58' E 033°03'0 0.0
2017-Feb-12 09:33N 68°58' E 033°03'0 0.0
2017-Feb-12 08:30N 68°58' E 033°03'0 0.0
2017-Feb-12 07:33N 68°58' E 033°03'0 0.0
2017-Feb-12 06:33N 68°58' E 033°03'0 0.0
2017-Feb-12 05:33N 68°58' E 033°03'0 0.0
2017-Feb-12 04:33N 68°58' E 033°03'0 0.0
2017-Feb-12 03:33N 68°58' E 033°03'0 0.0
2017-Feb-12 02:33N 68°58' E 033°03'0 0.0
2017-Feb-12 01:33N 68°58' E 033°03'0 0.0
2017-Feb-12 00:33N 68°58' E 033°03'0 0.0
2017-Feb-11 12:08N 68°58' E 033°03'0 0.0
2017-Feb-11 11:32N 68°58' E 033°03'0 0.0
2017-Feb-11 10:32N 68°58' E 033°03'0 0.0
2017-Feb-11 09:32N 68°58' E 033°03'0 0.0
2017-Feb-11 08:32N 68°58' E 033°03'0 0.0
2017-Feb-11 07:32N 68°58' E 033°03'  
Track history (hours):
 
Tides and Currents Weather Stations Pressure Air Temp Water Temp Dewpoint Dewpoint Depression Visibility Wind Speed Wind Dir Waves Ship Positions

Emmagracht

Last reported at 2017-Feb-21 07:31 UTC. Time now 2017-Feb-21 07:58 UTC.
Position N 51°54' E 004°25'.

Length 136 m; beam 19 m; draft 9 m.

Type: Cargo ship. MMSI: 246308000.

Date/timePositionNaut miles runAvg speedWind from/ knotsBaromVisibWave heightAir tempDewpointWater temp
2017-Feb-21 07:31N 51°54' E 004°25'0 0.0
2017-Feb-21 06:31N 51°54' E 004°25'0 0.0
2017-Feb-21 05:31N 51°54' E 004°25'0 0.0
2017-Feb-21 04:31N 51°54' E 004°25'0 0.0
2017-Feb-21 03:31N 51°54' E 004°25'0 0.0
2017-Feb-21 02:32N 51°54' E 004°25'0 0.0
2017-Feb-21 01:31N 51°54' E 004°25'0 0.0
2017-Feb-21 00:31N 51°54' E 004°25'0 0.0
2017-Feb-20 23:32N 51°54' E 004°25'0 0.0
2017-Feb-20 22:32N 51°54' E 004°25'0 0.5
2017-Feb-20 21:33N 51°54' E 004°25'1 1.1
2017-Feb-20 20:31N 51°53' E 004°26'0 0.0
2017-Feb-20 19:31N 51°53' E 004°26'1 0.8
2017-Feb-20 18:34N 51°53' E 004°24'5 5.5
2017-Feb-20 17:34N 51°54' E 004°16'8 8.4
2017-Feb-20 16:34N 51°59' E 004°04'10 9.6
2017-Feb-20 15:34N 52°00' E 003°49'1010.4
2017-Feb-20 14:33N 52°06' E 003°34'  
2017-Feb-16 23:08N 68°13' E 010°02'712.5
2017-Feb-16 22:32N 68°18' E 010°17'1211.7
2017-Feb-16 21:33N 68°26' E 010°40'  
2017-Feb-14 00:32N 69°03' E 033°06'5 5.5
2017-Feb-13 23:33N 68°58' E 033°03'0 0.1
2017-Feb-13 22:31N 68°58' E 033°03'0 0.0
2017-Feb-13 21:31N 68°58' E 033°03'0 0.0
2017-Feb-13 20:31N 68°58' E 033°03'0 0.0
2017-Feb-13 19:31N 68°58' E 033°03'0 0.0
2017-Feb-13 18:31N 68°58' E 033°03'0 0.0
2017-Feb-13 17:31N 68°58' E 033°03'0 0.0
2017-Feb-13 16:31N 68°58' E 033°03'0 0.0
2017-Feb-13 15:31N 68°58' E 033°03'0 0.0
2017-Feb-13 14:31N 68°58' E 033°03'0 0.0
2017-Feb-13 13:31N 68°58' E 033°03'0 0.0
2017-Feb-13 12:31N 68°58' E 033°03'0 0.0
2017-Feb-12 22:28N 68°58' E 033°03'0 0.0
2017-Feb-12 21:33N 68°58' E 033°03'0 0.0
2017-Feb-12 20:33N 68°58' E 033°03'0 0.0
2017-Feb-12 19:33N 68°58' E 033°03'0 0.0
2017-Feb-12 18:33N 68°58' E 033°03'0 0.0
2017-Feb-12 17:33N 68°58' E 033°03'0 0.0
2017-Feb-12 16:33N 68°58' E 033°03'0 0.0
2017-Feb-12 15:33N 68°58' E 033°03'0 0.0
2017-Feb-12 14:33N 68°58' E 033°03'0 0.0
2017-Feb-12 13:33N 68°58' E 033°03'0 0.0
2017-Feb-12 12:33N 68°58' E 033°03'0 0.0
2017-Feb-12 11:33N 68°58' E 033°03'0 0.0
2017-Feb-12 10:30N 68°58' E 033°03'0 0.0
2017-Feb-12 09:33N 68°58' E 033°03'0 0.0
2017-Feb-12 08:30N 68°58' E 033°03'0 0.0
2017-Feb-12 07:33N 68°58' E 033°03'0 0.0
2017-Feb-12 06:33N 68°58' E 033°03'0 0.0
2017-Feb-12 05:33N 68°58' E 033°03'0 0.0
2017-Feb-12 04:33N 68°58' E 033°03'0 0.0
2017-Feb-12 03:33N 68°58' E 033°03'0 0.0
2017-Feb-12 02:33N 68°58' E 033°03'0 0.0
2017-Feb-12 01:33N 68°58' E 033°03'0 0.0
2017-Feb-12 00:33N 68°58' E 033°03'0 0.0
2017-Feb-11 12:08N 68°58' E 033°03'0 0.0
2017-Feb-11 11:32N 68°58' E 033°03'0 0.0
2017-Feb-11 10:32N 68°58' E 033°03'0 0.0
2017-Feb-11 09:32N 68°58' E 033°03'0 0.0
2017-Feb-11 08:32N 68°58' E 033°03'0 0.0
2017-Feb-11 07:32N 68°58' E 033°03'  

Dump ship's entire track history